createdAt,value
2023-08-07T00:02:00.703Z,101356.81
2023-08-07T00:04:27.094Z,101354.47
2023-08-07T00:06:53.567Z,101355.13
2023-08-07T00:09:19.931Z,101358.44
2023-08-07T00:11:48.779Z,101362.69
2023-08-07T00:14:20.541Z,101361.91
2023-08-07T00:16:47.250Z,101357.34
2023-08-07T00:19:13.959Z,101355.78
2023-08-07T00:21:40.970Z,101354.66
2023-08-07T00:24:07.371Z,101358.13
2023-08-07T00:26:33.985Z,101361.13
2023-08-07T00:29:00.492Z,101360.00
2023-08-07T00:31:27.027Z,101364.25
2023-08-07T00:33:55.484Z,101362.00
2023-08-07T00:36:21.962Z,101373.81
2023-08-07T00:38:55.132Z,101363.13
2023-08-07T00:41:25.034Z,101365.81
2023-08-07T00:43:54.763Z,101370.69
2023-08-07T00:46:21.306Z,101353.09
2023-08-07T00:48:47.741Z,101358.91
2023-08-07T00:51:14.644Z,101358.44
2023-08-07T00:53:41.517Z,101358.44
2023-08-07T00:56:08.493Z,101355.78
2023-08-07T00:58:35.037Z,101352.78
2023-08-07T01:01:08.065Z,101348.22
2023-08-07T01:03:35.870Z,101347.88
2023-08-07T01:06:02.851Z,101360.47
2023-08-07T01:08:30.196Z,101360.47
2023-08-07T01:11:10.628Z,101371.16
2023-08-07T01:14:00.073Z,101361.56
2023-08-07T01:16:33.291Z,101362.69
2023-08-07T01:19:02.022Z,101365.34
2023-08-07T01:21:28.416Z,101365.34
2023-08-07T01:23:54.811Z,101361.41
2023-08-07T01:26:22.548Z,101371.81
2023-08-07T01:29:08.826Z,101364.09
2023-08-07T01:31:39.594Z,101371.81
2023-08-07T01:34:09.426Z,101377.94
2023-08-07T01:36:36.702Z,101374.16
2023-08-07T01:39:04.783Z,101374.94
2023-08-07T01:41:31.881Z,101378.38
2023-08-07T01:44:00.256Z,101378.38
2023-08-07T01:46:26.998Z,101374.59
2023-08-07T01:48:58.889Z,101383.38
2023-08-07T01:51:25.610Z,101376.50
2023-08-07T01:53:52.020Z,101370.03
2023-08-07T01:56:18.463Z,101376.94
2023-08-07T01:58:49.333Z,101380.28
2023-08-07T02:01:20.458Z,101377.59
2023-08-07T02:03:47.276Z,101381.06
2023-08-07T02:06:13.714Z,101378.38
2023-08-07T02:08:43.934Z,101377.59
2023-08-07T02:11:10.417Z,101380.59
2023-08-07T02:13:36.822Z,101387.94
2023-08-07T02:16:04.689Z,101384.50
2023-08-07T02:18:31.178Z,101381.19
2023-08-07T02:20:57.599Z,101389.66
2023-08-07T02:23:23.985Z,101389.66
2023-08-07T02:25:50.389Z,101385.09
2023-08-07T02:28:16.861Z,101390.44
2023-08-07T02:30:47.931Z,101398.13
2023-08-07T02:33:14.390Z,101396.22
2023-08-07T02:35:40.752Z,101389.03
2023-08-07T02:38:07.199Z,101395.44
2023-08-07T02:40:33.649Z,101397.47
2023-08-07T02:43:00.034Z,101393.25
2023-08-07T02:45:26.460Z,101395.25
2023-08-07T02:47:52.870Z,101390.41
2023-08-07T02:50:19.328Z,101393.50
2023-08-07T02:52:46.840Z,101397.28
2023-08-07T02:55:13.194Z,101396.19
2023-08-07T02:57:42.479Z,101400.75
2023-08-07T03:00:09.513Z,101393.06
2023-08-07T03:02:35.900Z,101393.25
2023-08-07T03:05:02.299Z,101392.91
2023-08-07T03:07:28.807Z,101389.47
2023-08-07T03:09:55.215Z,101402.38
2023-08-07T03:12:22.286Z,101386.22
2023-08-07T03:14:48.678Z,101385.44
2023-08-07T03:17:15.124Z,101387.31
2023-08-07T03:19:43.890Z,101386.66
2023-08-07T03:22:10.723Z,101378.53
2023-08-07T03:24:37.102Z,101380.28
2023-08-07T03:27:03.738Z,101378.38
2023-08-07T03:29:30.138Z,101377.59
2023-08-07T03:31:56.885Z,101381.38
2023-08-07T03:34:23.371Z,101382.50
2023-08-07T03:36:49.800Z,101392.38
2023-08-07T03:39:16.447Z,101379.81
2023-08-07T03:41:42.881Z,101382.16
2023-08-07T03:44:09.292Z,101371.81
2023-08-07T03:46:35.704Z,101374.94
2023-08-07T03:49:02.112Z,101378.72
2023-08-07T03:51:33.676Z,101381.84
2023-08-07T03:54:00.661Z,101372.25
2023-08-07T03:56:27.055Z,101371.16
2023-08-07T03:58:53.854Z,101378.03
2023-08-07T04:01:20.348Z,101382.59
2023-08-07T04:03:49.225Z,101382.59
2023-08-07T04:06:17.097Z,101388.44
2023-08-07T04:08:46.298Z,101383.38
2023-08-07T04:11:12.737Z,101381.97
2023-08-07T04:13:39.264Z,101381.19
2023-08-07T04:16:06.403Z,101377.41
2023-08-07T04:18:39.063Z,101381.63
2023-08-07T04:21:05.742Z,101386.66
2023-08-07T04:23:32.601Z,101390.59
2023-08-07T04:26:00.441Z,101386.78
2023-08-07T04:28:29.363Z,101396.22
2023-08-07T04:30:55.970Z,101400.16
2023-08-07T04:33:26.370Z,101395.94
2023-08-07T04:35:53.124Z,101394.38
2023-08-07T04:38:20.343Z,101408.63
2023-08-07T04:40:48.045Z,101405.94
2023-08-07T04:43:15.615Z,101417.13
2023-08-07T04:45:42.584Z,101419.00
2023-08-07T04:48:09.435Z,101421.34
2023-08-07T04:50:36.325Z,101425.59
2023-08-07T04:53:02.773Z,101425.59
2023-08-07T04:55:29.224Z,101430.59
2023-08-07T04:57:57.239Z,101428.41
2023-08-07T05:00:24.111Z,101430.28
2023-08-07T05:02:50.894Z,101443.19
2023-08-07T05:05:23.760Z,101433.75
2023-08-07T05:07:50.510Z,101437.19
2023-08-07T05:10:16.940Z,101439.22
2023-08-07T05:12:43.356Z,101442.34
2023-08-07T05:15:10.400Z,101454.94
2023-08-07T05:17:36.909Z,101470.16
2023-08-07T05:20:03.755Z,101465.94
2023-08-07T05:22:34.192Z,101471.94
2023-08-07T05:25:00.963Z,101469.63
2023-08-07T05:27:27.427Z,101470.28
2023-08-07T05:29:53.889Z,101471.72
2023-08-07T05:32:20.451Z,101474.25
2023-08-07T05:34:46.886Z,101475.34
2023-08-07T05:37:13.338Z,101478.03
2023-08-07T05:39:39.702Z,101468.91
2023-08-07T05:42:06.355Z,101474.25
2023-08-07T05:44:32.780Z,101479.41
2023-08-07T05:46:59.155Z,101480.97
2023-08-07T05:49:26.602Z,101491.81
2023-08-07T05:51:55.802Z,101491.16
2023-08-07T05:54:22.866Z,101485.94
2023-08-07T05:56:52.527Z,101488.09
2023-08-07T05:59:22.436Z,101487.81
2023-08-07T06:01:49.350Z,101485.56
2023-08-07T06:04:15.888Z,101495.31
2023-08-07T06:06:43.695Z,101489.28
2023-08-07T06:09:10.634Z,101495.91
2023-08-07T06:11:38.023Z,101502.47
2023-08-07T06:14:05.993Z,101496.50
2023-08-07T06:16:32.654Z,101501.31
2023-08-07T06:18:59.200Z,101509.16
2023-08-07T06:21:25.752Z,101512.75
2023-08-07T06:23:52.734Z,101501.84
2023-08-07T06:26:19.546Z,101510.91
2023-08-07T06:28:46.879Z,101507.06
2023-08-07T06:31:14.848Z,101507.75
2023-08-07T06:33:41.362Z,101510.03
2023-08-07T06:36:09.600Z,101518.81
2023-08-07T06:38:36.011Z,101519.69
2023-08-07T06:41:02.587Z,101517.59
2023-08-07T06:43:29.168Z,101524.00
2023-08-07T06:45:56.948Z,101519.22
2023-08-07T06:48:24.085Z,101518.03
2023-08-07T06:50:52.013Z,101522.28
2023-08-07T06:53:19.068Z,101521.19
2023-08-07T06:55:46.149Z,101532.34
2023-08-07T06:58:17.547Z,101534.28
2023-08-07T07:00:46.560Z,101526.75
2023-08-07T07:03:13.213Z,101521.66
2023-08-07T07:05:39.662Z,101517.50
2023-08-07T07:08:07.831Z,101536.53
2023-08-07T07:10:35.945Z,101547.41
2023-08-07T07:13:02.458Z,101555.72
2023-08-07T07:15:28.933Z,101560.84
2023-08-07T07:17:59.628Z,101563.44
2023-08-07T07:20:27.737Z,101573.53
2023-08-07T07:22:54.217Z,101582.28
2023-08-07T07:25:22.209Z,101585.22
2023-08-07T07:27:55.595Z,101592.06
2023-08-07T07:30:24.503Z,101578.09
2023-08-07T07:32:51.329Z,101585.19
2023-08-07T07:35:17.718Z,101587.03
2023-08-07T07:37:44.197Z,101590.91
2023-08-07T07:40:12.055Z,101589.44
2023-08-07T07:42:38.749Z,101595.78
2023-08-07T07:45:06.248Z,101597.13
2023-08-07T07:47:32.674Z,101607.78
2023-08-07T07:50:08.567Z,101604.03
2023-08-07T07:52:35.260Z,101605.50
2023-08-07T07:55:01.830Z,101601.16
2023-08-07T07:57:28.230Z,101613.19
2023-08-07T07:59:54.675Z,101614.94
2023-08-07T08:02:23.301Z,101612.88
2023-08-07T08:04:49.845Z,101618.84
2023-08-07T08:07:16.606Z,101628.78
2023-08-07T08:09:44.319Z,101626.84
2023-08-07T08:12:11.407Z,101624.56
2023-08-07T08:17:24.907Z,101629.16
2023-08-07T08:18:10.585Z,101623.69
2023-08-07T08:19:51.742Z,101639.44
2023-08-07T08:22:18.741Z,101651.66
2023-08-07T08:24:45.124Z,101654.00
2023-08-07T08:27:11.508Z,101647.50
2023-08-07T08:29:38.012Z,101646.06
2023-08-07T08:32:05.029Z,101645.50
2023-08-07T08:34:31.424Z,101649.66
2023-08-07T08:36:58.436Z,101650.78
2023-08-07T08:39:24.952Z,101641.41
2023-08-07T08:41:51.419Z,101644.03
2023-08-07T08:44:20.527Z,101643.53
2023-08-07T08:46:50.444Z,101644.19
2023-08-07T08:49:25.815Z,101648.88
2023-08-07T08:51:52.331Z,101649.75
2023-08-07T08:54:19.426Z,101653.38
2023-08-07T08:56:46.644Z,101660.16
2023-08-07T08:59:13.444Z,101674.06
2023-08-07T09:01:40.573Z,101678.56
2023-08-07T09:04:07.106Z,101681.56
2023-08-07T09:06:33.891Z,101687.88
2023-08-07T09:09:02.258Z,101686.56
2023-08-07T09:11:32.715Z,101684.53
2023-08-07T09:14:02.156Z,101686.41
2023-08-07T09:16:29.810Z,101691.06
2023-08-07T09:18:59.697Z,101690.06
2023-08-07T09:21:26.830Z,101685.59
2023-08-07T09:23:53.201Z,101690.41
2023-08-07T09:26:24.673Z,101695.72
2023-08-07T09:28:54.100Z,101698.34
2023-08-07T09:31:21.828Z,101701.91
2023-08-07T09:33:51.755Z,101697.22
2023-08-07T09:36:19.088Z,101702.34
2023-08-07T09:38:50.746Z,101695.53
2023-08-07T09:41:20.989Z,101694.56
2023-08-07T09:43:47.452Z,101690.31
2023-08-07T09:46:14.049Z,101695.69
2023-08-07T09:48:45.103Z,101694.56
2023-08-07T09:51:12.161Z,101702.13
2023-08-07T09:53:38.664Z,101699.59
2023-08-07T09:56:05.315Z,101704.97
2023-08-07T09:58:31.829Z,101709.69
2023-08-07T10:01:03.929Z,101717.75
2023-08-07T10:03:31.462Z,101716.72
2023-08-07T10:05:58.773Z,101729.66
2023-08-07T10:08:25.915Z,101736.84
2023-08-07T10:10:53.095Z,101742.66
2023-08-07T10:13:23.635Z,101734.75
2023-08-07T10:15:55.159Z,101743.06
2023-08-07T10:18:22.646Z,101735.88
2023-08-07T10:20:49.494Z,101744.31
2023-08-07T10:23:18.257Z,101740.47
2023-08-07T10:25:47.499Z,101743.63
2023-08-07T10:28:17.751Z,101746.25
2023-08-07T10:30:44.272Z,101737.00
2023-08-07T10:33:13.078Z,101728.34
2023-08-07T10:35:45.978Z,101736.16
2023-08-07T10:38:12.650Z,101734.06
2023-08-07T10:41:00.638Z,101737.38
2023-08-07T10:43:28.748Z,101730.25
2023-08-07T10:46:03.402Z,101736.91
2023-08-07T10:48:29.815Z,101743.59
2023-08-07T10:50:56.233Z,101746.75
2023-08-07T10:53:36.048Z,101741.97
2023-08-07T10:56:09.053Z,101738.06
2023-08-07T10:58:37.539Z,101738.28
2023-08-07T11:01:31.304Z,101742.41
2023-08-07T11:04:03.870Z,101740.63
2023-08-07T11:06:36.683Z,101748.94
2023-08-07T11:09:05.896Z,101743.81
2023-08-07T11:11:47.197Z,101748.53
2023-08-07T11:14:17.845Z,101767.03
2023-08-07T11:16:45.643Z,101772.84
2023-08-07T11:19:20.693Z,101766.69
2023-08-07T11:21:48.881Z,101773.41
2023-08-07T11:24:17.342Z,101774.97
2023-08-07T11:26:45.640Z,101775.13
2023-08-07T11:29:12.163Z,101768.03
2023-08-07T11:31:38.814Z,101768.91
2023-08-07T11:34:05.332Z,101767.78
2023-08-07T11:36:32.854Z,101762.25
2023-08-07T11:38:59.238Z,101771.72
2023-08-07T11:41:25.794Z,101772.88
2023-08-07T11:43:54.861Z,101775.19
2023-08-07T11:46:22.475Z,101771.88
2023-08-07T11:48:49.097Z,101769.75
2023-08-07T11:51:15.645Z,101771.88
2023-08-07T11:53:43.024Z,101771.13
2023-08-07T11:56:11.683Z,101763.56
2023-08-07T11:58:41.399Z,101772.47
2023-08-07T12:01:11.363Z,101771.28
2023-08-07T12:03:40.048Z,101767.13
2023-08-07T12:06:08.148Z,101776.19
2023-08-07T12:08:39.593Z,101765.47
2023-08-07T12:11:08.227Z,101763.47
2023-08-07T12:13:36.370Z,101771.78
2023-08-07T12:16:06.464Z,101759.41
2023-08-07T12:18:33.764Z,101769.84
2023-08-07T12:21:05.579Z,101766.00
2023-08-07T12:23:35.344Z,101753.94
2023-08-07T12:26:02.511Z,101759.19
2023-08-07T12:28:28.869Z,101758.56
2023-08-07T12:30:55.452Z,101755.88
2023-08-07T12:33:24.556Z,101760.19
2023-08-07T12:35:51.100Z,101757.16
2023-08-07T12:38:18.515Z,101760.94
2023-08-07T12:40:45.153Z,101751.31
2023-08-07T12:43:11.724Z,101755.69
2023-08-07T12:48:08.372Z,101759.38
2023-08-07T12:50:35.305Z,101769.47
2023-08-07T12:53:02.624Z,101769.19
2023-08-07T12:55:30.678Z,101766.50
2023-08-07T12:57:58.635Z,101763.13
2023-08-07T13:00:27.614Z,101768.06
2023-08-07T13:02:55.892Z,101768.47
2023-08-07T13:05:23.589Z,101763.19
2023-08-07T13:07:55.126Z,101767.34
2023-08-07T13:10:22.406Z,101774.47
2023-08-07T13:12:50.477Z,101773.44
2023-08-07T13:15:18.314Z,101768.75
2023-08-07T13:17:45.314Z,101777.16
2023-08-07T13:20:14.067Z,101780.31
2023-08-07T13:22:43.442Z,101777.47
2023-08-07T13:25:11.040Z,101793.53
2023-08-07T13:27:38.340Z,101784.69
2023-08-07T13:30:05.698Z,101779.50
2023-08-07T13:32:33.285Z,101784.56
2023-08-07T13:34:59.856Z,101783.28
2023-08-07T13:37:26.406Z,101797.25
2023-08-07T13:39:54.047Z,101785.94
2023-08-07T13:42:20.734Z,101799.41
2023-08-07T13:44:47.256Z,101787.84
2023-08-07T13:47:13.678Z,101794.09
2023-08-07T13:49:40.366Z,101797.06
2023-08-07T13:52:07.267Z,101799.78
2023-08-07T13:54:33.875Z,101789.00
2023-08-07T13:57:00.375Z,101800.31
2023-08-07T13:59:27.077Z,101797.16
2023-08-07T14:01:55.279Z,101799.50
2023-08-07T14:04:21.960Z,101803.16
2023-08-07T14:06:48.429Z,101794.34
2023-08-07T14:09:15.146Z,101798.84
2023-08-07T14:11:41.691Z,101802.97
2023-08-07T14:14:08.309Z,101806.03
2023-08-07T14:16:35.788Z,101801.72
2023-08-07T14:19:03.599Z,101804.22
2023-08-07T14:21:30.005Z,101795.91
2023-08-07T14:23:56.405Z,101798.13
2023-08-07T14:26:23.060Z,101799.66
2023-08-07T14:28:50.820Z,101809.69
2023-08-07T14:31:17.310Z,101813.03
2023-08-07T14:33:43.758Z,101817.78
2023-08-07T14:36:10.331Z,101822.09
2023-08-07T14:38:36.729Z,101813.88
2023-08-07T14:41:06.279Z,101819.91
2023-08-07T14:43:33.069Z,101810.41
2023-08-07T14:45:59.821Z,101817.38
2023-08-07T14:48:26.312Z,101806.13
2023-08-07T14:50:52.957Z,101807.41
2023-08-07T14:53:19.459Z,101800.28
2023-08-07T14:55:46.375Z,101812.31
2023-08-07T14:58:13.612Z,101809.31
2023-08-07T15:00:40.093Z,101824.97
2023-08-07T15:03:06.599Z,101819.75
2023-08-07T15:05:33.334Z,101825.09
2023-08-07T15:08:02.082Z,101816.44
2023-08-07T15:10:29.449Z,101826.50
2023-08-07T15:12:56.864Z,101820.91
2023-08-07T15:15:23.677Z,101826.53
2023-08-07T15:17:50.134Z,101826.78
2023-08-07T15:20:16.747Z,101840.66
2023-08-07T15:22:43.224Z,101835.34
2023-08-07T15:25:09.946Z,101837.69
2023-08-07T15:27:36.413Z,101836.75
2023-08-07T15:30:03.204Z,101836.09
2023-08-07T15:32:29.873Z,101836.41
2023-08-07T15:34:56.296Z,101828.81
2023-08-07T15:37:22.764Z,101815.97
2023-08-07T15:39:49.143Z,101821.41
2023-08-07T15:42:15.563Z,101834.06
2023-08-07T15:44:41.908Z,101830.09
2023-08-07T15:47:09.011Z,101833.75
2023-08-07T15:49:36.621Z,101819.56
2023-08-07T15:52:03.086Z,101831.28
2023-08-07T15:54:29.457Z,101824.03
2023-08-07T15:56:58.547Z,101831.06
2023-08-07T15:59:27.720Z,101824.22
2023-08-07T16:01:54.176Z,101826.97
2023-08-07T16:04:20.658Z,101824.78
2023-08-07T16:06:47.048Z,101820.84
2023-08-07T16:09:13.408Z,101822.84
2023-08-07T16:11:39.844Z,101835.13
2023-08-07T16:14:06.255Z,101824.41
2023-08-07T16:16:32.774Z,101820.53
2023-08-07T16:18:59.227Z,101830.38
2023-08-07T16:21:25.647Z,101832.91
2023-08-07T16:23:52.212Z,101832.00
2023-08-07T16:26:18.661Z,101838.03
2023-08-07T16:28:46.535Z,101831.47
2023-08-07T16:31:13.115Z,101827.50
2023-08-07T16:33:40.089Z,101827.28
2023-08-07T16:36:06.902Z,101828.78
2023-08-07T16:38:33.283Z,101826.44
2023-08-07T16:40:59.746Z,101830.53
2023-08-07T16:43:26.349Z,101822.22
2023-08-07T16:45:53.206Z,101830.06
2023-08-07T16:48:19.674Z,101829.94
2023-08-07T16:50:56.879Z,101827.50
2023-08-07T16:53:33.031Z,101817.44
2023-08-07T16:55:59.491Z,101818.22
2023-08-07T16:58:25.916Z,101816.47
2023-08-07T17:00:52.450Z,101814.81
2023-08-07T17:03:18.969Z,101817.50
2023-08-07T17:05:45.397Z,101811.84
2023-08-07T17:08:11.852Z,101818.00
2023-08-07T17:10:38.226Z,101809.72
2023-08-07T17:13:04.781Z,101805.97
2023-08-07T17:15:31.255Z,101815.44
2023-08-07T17:17:59.016Z,101806.47
2023-08-07T17:20:25.456Z,101800.56
2023-08-07T17:22:51.886Z,101799.38
2023-08-07T17:25:18.287Z,101793.56
2023-08-07T17:27:44.651Z,101803.09
2023-08-07T17:30:11.299Z,101795.88
2023-08-07T17:32:38.118Z,101794.91
2023-08-07T17:35:05.082Z,101794.03
2023-08-07T17:37:31.561Z,101790.09
2023-08-07T17:39:57.973Z,101788.09
2023-08-07T17:42:24.384Z,101778.53
2023-08-07T17:44:51.608Z,101780.72
2023-08-07T17:47:18.023Z,101783.03
2023-08-07T17:49:44.427Z,101778.75
2023-08-07T17:52:10.902Z,101782.09
2023-08-07T17:54:38.808Z,101772.97
2023-08-07T17:57:06.303Z,101762.38
2023-08-07T17:59:32.786Z,101765.94
2023-08-07T18:01:59.187Z,101772.53
2023-08-07T18:04:25.634Z,101769.25
2023-08-07T18:06:54.535Z,101773.75
2023-08-07T18:09:20.902Z,101775.13
2023-08-07T18:11:47.360Z,101777.41
2023-08-07T18:14:13.766Z,101773.41
2023-08-07T18:16:40.245Z,101773.91
2023-08-07T18:19:06.656Z,101770.25
2023-08-07T18:21:33.097Z,101763.09
2023-08-07T18:23:59.508Z,101757.19
2023-08-07T18:26:25.855Z,101755.88
2023-08-07T18:28:52.257Z,101758.34
2023-08-07T18:31:18.663Z,101762.41
2023-08-07T18:33:45.043Z,101755.53
2023-08-07T18:36:11.428Z,101757.53
2023-08-07T18:38:37.834Z,101762.38
2023-08-07T18:41:06.824Z,101747.50
2023-08-07T18:43:33.436Z,101758.66
2023-08-07T18:45:59.906Z,101751.09
2023-08-07T18:48:26.409Z,101749.28
2023-08-07T18:50:52.886Z,101743.25
2023-08-07T18:53:19.243Z,101748.84
2023-08-07T18:55:45.650Z,101750.50
2023-08-07T18:58:12.122Z,101741.47
2023-08-07T19:00:38.511Z,101741.25
2023-08-07T19:03:08.103Z,101746.69
2023-08-07T19:05:34.598Z,101741.09
2023-08-07T19:08:00.960Z,101740.53
2023-08-07T19:10:27.335Z,101744.53
2023-08-07T19:12:53.799Z,101741.16
2023-08-07T19:15:20.255Z,101739.38
2023-08-07T19:17:46.903Z,101750.59
2023-08-07T19:20:13.525Z,101752.72
2023-08-07T19:22:40.545Z,101753.69
2023-08-07T19:25:07.792Z,101746.97
2023-08-07T19:27:34.232Z,101755.06
2023-08-07T19:30:00.688Z,101752.59
2023-08-07T19:32:27.534Z,101754.03
2023-08-07T19:34:54.014Z,101744.75
2023-08-07T19:37:20.470Z,101745.72
2023-08-07T19:39:46.894Z,101751.31
2023-08-07T19:42:13.335Z,101750.72
2023-08-07T19:44:39.851Z,101736.41
2023-08-07T19:47:06.418Z,101738.94
2023-08-07T19:49:32.884Z,101735.03
2023-08-07T19:51:59.333Z,101728.75
2023-08-07T19:54:25.740Z,101715.88
2023-08-07T19:56:52.392Z,101724.56
2023-08-07T19:59:20.033Z,101743.19
2023-08-07T20:01:46.480Z,101738.47
2023-08-07T20:04:14.560Z,101733.66
2023-08-07T20:06:41.179Z,101741.84
2023-08-07T20:09:07.976Z,101727.25
2023-08-07T20:11:38.276Z,101731.06
2023-08-07T20:14:04.828Z,101725.72
2023-08-07T20:16:32.865Z,101718.53
2023-08-07T20:19:00.056Z,101714.59
2023-08-07T20:21:26.534Z,101715.25
2023-08-07T20:23:52.913Z,101730.66
2023-08-07T20:26:19.911Z,101725.00
2023-08-07T20:28:46.393Z,101717.88
2023-08-07T20:31:12.898Z,101711.75
2023-08-07T20:33:39.398Z,101712.41
2023-08-07T20:36:06.474Z,101707.56
2023-08-07T20:38:32.919Z,101702.69
2023-08-07T20:40:59.450Z,101704.13
2023-08-07T20:43:25.929Z,101696.28
2023-08-07T20:45:52.334Z,101701.31
2023-08-07T20:48:18.837Z,101689.03
2023-08-07T20:50:45.271Z,101684.81
2023-08-07T20:53:11.688Z,101683.41
2023-08-07T20:55:38.084Z,101683.88
2023-08-07T20:58:04.698Z,101685.75
2023-08-07T21:00:31.133Z,101679.31
2023-08-07T21:02:57.548Z,101677.41
2023-08-07T21:05:24.019Z,101670.16
2023-08-07T21:07:50.504Z,101659.47
2023-08-07T21:10:17.067Z,101666.41
2023-08-07T21:12:43.450Z,101657.25
2023-08-07T21:15:10.650Z,101662.63
2023-08-07T21:17:37.059Z,101644.34
2023-08-07T21:20:03.907Z,101646.38
2023-08-07T21:22:30.330Z,101636.78
2023-08-07T21:24:56.810Z,101644.16
2023-08-07T21:27:23.995Z,101635.00
2023-08-07T21:29:50.405Z,101642.41
2023-08-07T21:32:17.030Z,101642.09
2023-08-07T21:34:43.411Z,101644.41
2023-08-07T21:37:09.865Z,101638.00
2023-08-07T21:39:36.274Z,101638.00
2023-08-07T21:42:03.369Z,101639.56
2023-08-07T21:44:29.914Z,101641.13
2023-08-07T21:46:56.344Z,101638.88
2023-08-07T21:49:22.841Z,101637.78
2023-08-07T21:51:49.351Z,101638.25
2023-08-07T21:54:17.222Z,101637.78
2023-08-07T21:56:44.208Z,101640.00
2023-08-07T21:59:10.798Z,101627.28
2023-08-07T22:01:37.583Z,101617.38
2023-08-07T22:04:04.296Z,101612.47
2023-08-07T22:06:30.652Z,101611.34
2023-08-07T22:08:57.076Z,101602.88
2023-08-07T22:11:23.684Z,101603.19
2023-08-07T22:13:50.096Z,101592.81
2023-08-07T22:16:16.772Z,101596.59
2023-08-07T22:18:43.221Z,101595.03
2023-08-07T22:21:09.750Z,101595.81
2023-08-07T22:23:36.190Z,101594.69
2023-08-07T22:26:02.752Z,101597.38
2023-08-07T22:28:29.248Z,101595.81
2023-08-07T22:30:55.732Z,101594.25
2023-08-07T22:33:22.127Z,101590.47
2023-08-07T22:35:48.578Z,101581.19
2023-08-07T22:38:15.064Z,101588.63
2023-08-07T22:40:41.438Z,101578.56
2023-08-07T22:43:10.056Z,101580.81
2023-08-07T22:45:38.380Z,101580.31
2023-08-07T22:48:05.158Z,101578.75
2023-08-07T22:50:31.855Z,101579.88
2023-08-07T22:52:58.334Z,101581.28
2023-08-07T22:55:24.927Z,101578.16
2023-08-07T22:57:51.326Z,101570.81
2023-08-07T23:00:17.957Z,101567.53
2023-08-07T23:02:44.448Z,101560.47
2023-08-07T23:05:10.864Z,101571.47
2023-08-07T23:07:37.800Z,101564.25
2023-08-07T23:10:04.419Z,101554.34
2023-08-07T23:12:30.778Z,101551.69
2023-08-07T23:14:57.186Z,101555.91
2023-08-07T23:17:23.721Z,101554.66
2023-08-07T23:19:50.152Z,101550.28
2023-08-07T23:22:16.603Z,101550.47
2023-08-07T23:24:43.040Z,101547.81
2023-08-07T23:27:09.482Z,101550.47
2023-08-07T23:29:36.050Z,101541.97
2023-08-07T23:32:02.604Z,101539.31
2023-08-07T23:34:28.974Z,101538.53
2023-08-07T23:36:55.392Z,101546.69
2023-08-07T23:39:21.800Z,101538.34
2023-08-07T23:41:48.201Z,101544.94
2023-08-07T23:44:14.617Z,101540.06
2023-08-07T23:46:41.054Z,101537.72
2023-08-07T23:49:07.577Z,101535.47
2023-08-07T23:51:34.323Z,101531.69
2023-08-07T23:54:00.745Z,101527.91
2023-08-07T23:56:27.163Z,101521.16
2023-08-07T23:58:53.604Z,101528.50
